Time,TemperatureF,DewpointF,PressureIn,WindDirection,WindDirectionDegrees,WindSpeedMPH,WindSpeedGustMPH,Humidity,HourlyPrecipIn,Conditions,Clouds,dailyrainin,SoftwareType,DateUTC
2014-04-18 00:02:00,52.0,45.0,30.24,NE,50,7.0,-999.0,76,-99.99,,,-99.99,,2014-04-18 05:02:00,
2014-04-18 00:12:00,52.0,45.0,30.24,NE,50,7.0,-999.0,76,-99.99,,,-99.99,,2014-04-18 05:12:00,
2014-04-18 00:22:00,52.0,45.0,30.24,NE,50,7.0,-999.0,76,-99.99,,,-99.99,,2014-04-18 05:22:00,
2014-04-18 00:43:00,50.0,45.0,30.24,NNE,20,6.0,-999.0,81,-99.99,,,-99.99,,2014-04-18 05:43:00,
2014-04-18 01:12:00,50.0,45.0,30.24,NE,40,7.0,-999.0,81,-99.99,,,-99.99,,2014-04-18 06:12:00,
2014-04-18 01:22:00,50.0,45.0,30.24,NE,40,7.0,-999.0,81,-99.99,,,-99.99,,2014-04-18 06:22:00,
2014-04-18 01:32:00,50.0,45.0,30.24,NE,40,7.0,-999.0,81,-99.99,,,-99.99,,2014-04-18 06:32:00,
2014-04-18 02:22:00,48.0,43.0,30.23,North,0,0.0,-999.0,81,-99.99,,,-99.99,,2014-04-18 07:22:00,
2014-04-18 02:32:00,48.0,43.0,30.23,North,0,0.0,-999.0,81,-99.99,,,-99.99,,2014-04-18 07:32:00,
2014-04-18 02:42:00,48.0,43.0,30.23,North,0,0.0,-999.0,81,-99.99,,,-99.99,,2014-04-18 07:42:00,
2014-04-18 03:22:00,46.0,43.0,30.23,NE,40,5.0,-999.0,87,-99.99,,,-99.99,,2014-04-18 08:22:00,
2014-04-18 03:42:00,46.0,43.0,30.22,NE,40,5.0,-999.0,87,-99.99,,,-99.99,,2014-04-18 08:42:00,
2014-04-18 04:11:00,45.0,41.0,30.22,NE,40,5.0,-999.0,87,-99.99,,,-99.99,,2014-04-18 09:11:00,
2014-04-18 04:22:00,45.0,41.0,30.22,NE,40,5.0,-999.0,87,-99.99,,,-99.99,,2014-04-18 09:22:00,
2014-04-18 04:43:00,45.0,43.0,30.23,NE,40,5.0,-999.0,93,-99.99,,,-99.99,,2014-04-18 09:43:00,
2014-04-18 05:23:00,45.0,41.0,30.22,NE,40,5.0,-999.0,87,-99.99,,,-99.99,,2014-04-18 10:23:00,
2014-04-18 05:43:00,45.0,43.0,30.22,NE,50,7.0,-999.0,93,-99.99,,,-99.99,,2014-04-18 10:43:00,
2014-04-18 06:12:00,45.0,41.0,30.23,NE,50,5.0,-999.0,87,-99.99,,,-99.99,,2014-04-18 11:12:00,
2014-04-18 06:22:00,45.0,41.0,30.23,NE,50,5.0,-999.0,87,-99.99,,,-99.99,,2014-04-18 11:22:00,
2014-04-18 06:43:00,45.0,41.0,30.23,North,0,0.0,-999.0,87,-99.99,,,-99.99,,2014-04-18 11:43:00,
2014-04-18 07:12:00,43.0,39.0,30.24,North,0,0.0,-999.0,86,-99.99,,,-99.99,,2014-04-18 12:12:00,
2014-04-18 07:22:00,43.0,39.0,30.24,North,0,0.0,-999.0,86,-99.99,,,-99.99,,2014-04-18 12:22:00,
2014-04-18 07:32:00,43.0,39.0,30.24,North,0,0.0,-999.0,86,-99.99,,,-99.99,,2014-04-18 12:32:00,
2014-04-18 07:53:00,45.0,43.0,30.25,North,0,0.0,-999.0,93,-99.99,,,-99.99,,2014-04-18 12:53:00,
2014-04-18 08:02:00,45.0,43.0,30.25,North,0,0.0,-999.0,93,-99.99,,,-99.99,,2014-04-18 13:02:00,
2014-04-18 08:22:00,46.0,43.0,30.25,North,0,0.0,-999.0,87,-99.99,,,-99.99,,2014-04-18 13:22:00,
2014-04-18 08:42:00,46.0,43.0,30.26,NE,50,6.0,-999.0,87,-99.99,,,-99.99,,2014-04-18 13:42:00,
2014-04-18 09:22:00,52.0,45.0,30.26,NE,50,5.0,-999.0,76,-99.99,,,-99.99,,2014-04-18 14:22:00,
2014-04-18 09:42:00,54.0,46.0,30.26,North,0,0.0,-999.0,76,-99.99,,,-99.99,,2014-04-18 14:42:00,
2014-04-18 09:51:00,54.0,46.0,30.26,North,0,0.0,-999.0,76,-99.99,,,-99.99,,2014-04-18 14:51:00,
2014-04-18 10:02:00,54.0,46.0,30.26,North,0,0.0,-999.0,76,-99.99,,,-99.99,,2014-04-18 15:02:00,
2014-04-18 10:21:00,57.0,46.0,30.27,North,0,0.0,-999.0,67,-99.99,,,-99.99,,2014-04-18 15:21:00,
2014-04-18 10:43:00,59.0,46.0,30.27,North,0,0.0,-999.0,62,-99.99,,,-99.99,,2014-04-18 15:43:00,
2014-04-18 10:52:00,59.0,46.0,30.27,North,0,0.0,-999.0,62,-99.99,,,-99.99,,2014-04-18 15:52:00,
2014-04-18 11:03:00,59.0,46.0,30.27,North,0,0.0,-999.0,62,-99.99,,,-99.99,,2014-04-18 16:03:00,
2014-04-18 11:12:00,59.0,46.0,30.27,North,0,0.0,-999.0,62,-99.99,,,-99.99,,2014-04-18 16:12:00,
2014-04-18 11:52:00,63.0,46.0,30.27,East,90,5.0,-999.0,55,-99.99,,,-99.99,,2014-04-18 16:52:00,
2014-04-18 12:02:00,63.0,46.0,30.27,East,90,5.0,-999.0,55,-99.99,,,-99.99,,2014-04-18 17:02:00,
2014-04-18 12:12:00,63.0,46.0,30.27,East,90,5.0,-999.0,55,-99.99,,,-99.99,,2014-04-18 17:12:00,
2014-04-18 12:22:00,63.0,46.0,30.27,East,90,5.0,-999.0,55,-99.99,,,-99.99,,2014-04-18 17:22:00,
2014-04-18 12:42:00,64.0,45.0,30.26,NNE,20,5.0,-999.0,48,-99.99,,,-99.99,,2014-04-18 17:42:00,
2014-04-18 13:12:00,64.0,45.0,30.25,North,0,0.0,-999.0,48,-99.99,,,-99.99,,2014-04-18 18:12:00,
2014-04-18 13:21:00,64.0,45.0,30.25,North,0,0.0,-999.0,48,-99.99,,,-99.99,,2014-04-18 18:21:00,
2014-04-18 13:31:00,64.0,45.0,30.25,North,0,0.0,-999.0,48,-99.99,,,-99.99,,2014-04-18 18:31:00,
2014-04-18 13:51:00,66.0,45.0,30.23,East,80,9.0,-999.0,45,-99.99,,,-99.99,,2014-04-18 18:51:00,
2014-04-18 14:01:00,66.0,45.0,30.23,East,80,9.0,-999.0,45,-99.99,,,-99.99,,2014-04-18 19:01:00,
2014-04-18 14:11:00,66.0,45.0,30.23,East,80,9.0,-999.0,45,-99.99,,,-99.99,,2014-04-18 19:11:00,
2014-04-18 14:21:00,66.0,45.0,30.23,East,80,9.0,-999.0,45,-99.99,,,-99.99,,2014-04-18 19:21:00,
2014-04-18 14:31:00,66.0,45.0,30.23,East,80,9.0,-999.0,45,-99.99,,,-99.99,,2014-04-18 19:31:00,
2014-04-18 14:52:00,70.0,43.0,30.22,ESE,120,7.0,-999.0,37,-99.99,,,-99.99,,2014-04-18 19:52:00,
2014-04-18 15:01:00,70.0,43.0,30.22,ESE,120,7.0,-999.0,37,-99.99,,,-99.99,,2014-04-18 20:01:00,
2014-04-18 15:11:00,70.0,43.0,30.22,ESE,120,7.0,-999.0,37,-99.99,,,-99.99,,2014-04-18 20:11:00,
2014-04-18 15:22:00,70.0,43.0,30.22,ESE,120,7.0,-999.0,37,-99.99,,,-99.99,,2014-04-18 20:22:00,
2014-04-18 15:31:00,70.0,43.0,30.22,ESE,120,7.0,-999.0,37,-99.99,,,-99.99,,2014-04-18 20:31:00,
2014-04-18 15:52:00,70.0,45.0,30.20,ESE,110,6.0,-999.0,40,-99.99,,,-99.99,,2014-04-18 20:52:00,
2014-04-18 16:02:00,70.0,45.0,30.20,ESE,110,6.0,-999.0,40,-99.99,,,-99.99,,2014-04-18 21:02:00,
2014-04-18 16:22:00,70.0,45.0,30.18,North,0,0.0,-999.0,40,-99.99,,,-99.99,,2014-04-18 21:22:00,
2014-04-18 16:43:00,70.0,43.0,30.18,North,0,0.0,-999.0,37,-99.99,,,-99.99,,2014-04-18 21:43:00,
2014-04-18 16:53:00,70.0,43.0,30.18,North,0,0.0,-999.0,37,-99.99,,,-99.99,,2014-04-18 21:53:00,
2014-04-18 17:03:00,70.0,43.0,30.18,North,0,0.0,-999.0,37,-99.99,,,-99.99,,2014-04-18 22:03:00,
2014-04-18 17:13:00,70.0,43.0,30.18,North,0,0.0,-999.0,37,-99.99,,,-99.99,,2014-04-18 22:13:00,
2014-04-18 17:43:00,70.0,46.0,30.16,East,100,8.0,-999.0,43,-99.99,,,-99.99,,2014-04-18 22:43:00,
2014-04-18 18:22:00,70.0,46.0,30.15,NE,40,5.0,-999.0,43,-99.99,,,-99.99,,2014-04-18 23:22:00,
2014-04-18 18:43:00,70.0,45.0,30.15,ENE,60,6.0,-999.0,40,-99.99,,,-99.99,,2014-04-18 23:43:00,
2014-04-18 18:52:00,70.0,45.0,30.15,East,80,5.0,-999.0,40,-99.99,,,-99.99,,2014-04-18 23:52:00,
2014-04-18 19:01:00,70.0,45.0,30.15,East,80,5.0,-999.0,40,-99.99,,,-99.99,,2014-04-19 00:01:00,
2014-04-18 19:12:00,70.0,45.0,30.15,East,80,5.0,-999.0,40,-99.99,,,-99.99,,2014-04-19 00:12:00,
2014-04-18 19:22:00,70.0,45.0,30.15,East,80,5.0,-999.0,40,-99.99,,,-99.99,,2014-04-19 00:22:00,